sensor_id;sensor_type;location;lat;lon;timestamp;temperature;humidity
23550;DHT22;11953;49.010;8.608;2022-10-16T00:02:40;16.90;99.90
23550;DHT22;11953;49.010;8.608;2022-10-16T00:05:27;16.90;99.90
23550;DHT22;11953;49.010;8.608;2022-10-16T00:08:14;16.80;99.90
23550;DHT22;11953;49.010;8.608;2022-10-16T00:11:01;16.80;99.90
23550;DHT22;11953;49.010;8.608;2022-10-16T00:13:50;16.90;99.90
23550;DHT22;11953;49.010;8.608;2022-10-16T00:16:37;17.00;99.90
23550;DHT22;11953;49.010;8.608;2022-10-16T00:19:25;17.10;99.90
23550;DHT22;11953;49.010;8.608;2022-10-16T00:22:12;17.20;99.90
23550;DHT22;11953;49.010;8.608;2022-10-16T00:24:58;17.20;99.90
23550;DHT22;11953;49.010;8.608;2022-10-16T00:27:44;17.20;99.90
23550;DHT22;11953;49.010;8.608;2022-10-16T00:30:31;17.30;99.90
23550;DHT22;11953;49.010;8.608;2022-10-16T00:33:17;17.30;99.90
23550;DHT22;11953;49.010;8.608;2022-10-16T00:36:07;17.20;99.90
23550;DHT22;11953;49.010;8.608;2022-10-16T00:38:56;17.20;99.90
23550;DHT22;11953;49.010;8.608;2022-10-16T00:41:49;17.20;99.90
23550;DHT22;11953;49.010;8.608;2022-10-16T00:44:44;17.20;99.90
23550;DHT22;11953;49.010;8.608;2022-10-16T00:47:34;17.00;99.90
23550;DHT22;11953;49.010;8.608;2022-10-16T00:50:26;17.00;99.90
23550;DHT22;11953;49.010;8.608;2022-10-16T00:53:14;17.00;99.90
23550;DHT22;11953;49.010;8.608;2022-10-16T00:56:02;17.00;99.90
23550;DHT22;11953;49.010;8.608;2022-10-16T00:58:49;17.00;99.90
23550;DHT22;11953;49.010;8.608;2022-10-16T01:01:36;17.00;99.90
23550;DHT22;11953;49.010;8.608;2022-10-16T01:04:23;17.10;99.90
23550;DHT22;11953;49.010;8.608;2022-10-16T01:07:14;17.10;99.90
23550;DHT22;11953;49.010;8.608;2022-10-16T01:10:08;17.20;99.90
23550;DHT22;11953;49.010;8.608;2022-10-16T01:13:00;17.20;99.90
23550;DHT22;11953;49.010;8.608;2022-10-16T01:15:53;17.20;99.90
23550;DHT22;11953;49.010;8.608;2022-10-16T01:18:44;17.20;99.90
23550;DHT22;11953;49.010;8.608;2022-10-16T01:21:36;17.20;99.90
23550;DHT22;11953;49.010;8.608;2022-10-16T01:24:32;17.20;99.90
23550;DHT22;11953;49.010;8.608;2022-10-16T01:27:24;17.10;99.90
23550;DHT22;11953;49.010;8.608;2022-10-16T01:30:15;17.20;99.90
23550;DHT22;11953;49.010;8.608;2022-10-16T01:33:08;17.10;99.90
23550;DHT22;11953;49.010;8.608;2022-10-16T01:35:59;17.10;99.90
23550;DHT22;11953;49.010;8.608;2022-10-16T01:38:50;17.10;99.90
23550;DHT22;11953;49.010;8.608;2022-10-16T01:41:41;17.10;99.90
23550;DHT22;11953;49.010;8.608;2022-10-16T01:44:32;17.10;99.90
23550;DHT22;11953;49.010;8.608;2022-10-16T01:47:23;17.10;99.90
23550;DHT22;11953;49.010;8.608;2022-10-16T01:50:14;17.00;99.90
23550;DHT22;11953;49.010;8.608;2022-10-16T01:53:02;16.90;99.90
23550;DHT22;11953;49.010;8.608;2022-10-16T01:55:50;16.80;99.90
23550;DHT22;11953;49.010;8.608;2022-10-16T01:58:42;16.80;99.90
23550;DHT22;11953;49.010;8.608;2022-10-16T02:01:34;16.80;99.90
23550;DHT22;11953;49.010;8.608;2022-10-16T02:04:26;16.80;99.90
23550;DHT22;11953;49.010;8.608;2022-10-16T02:07:13;16.70;99.90
23550;DHT22;11953;49.010;8.608;2022-10-16T02:10:00;16.80;99.90
23550;DHT22;11953;49.010;8.608;2022-10-16T02:12:50;16.90;99.90
23550;DHT22;11953;49.010;8.608;2022-10-16T02:15:38;16.90;99.90
23550;DHT22;11953;49.010;8.608;2022-10-16T02:18:26;17.00;99.90
23550;DHT22;11953;49.010;8.608;2022-10-16T02:21:19;17.10;99.90
23550;DHT22;11953;49.010;8.608;2022-10-16T02:24:15;17.10;99.90
23550;DHT22;11953;49.010;8.608;2022-10-16T02:27:07;16.90;99.90
23550;DHT22;11953;49.010;8.608;2022-10-16T02:29:59;16.90;99.90
23550;DHT22;11953;49.010;8.608;2022-10-16T02:32:48;16.90;99.90
23550;DHT22;11953;49.010;8.608;2022-10-16T02:35:37;16.80;99.90
23550;DHT22;11953;49.010;8.608;2022-10-16T02:38:24;16.90;99.90
23550;DHT22;11953;49.010;8.608;2022-10-16T02:41:11;16.90;99.90
23550;DHT22;11953;49.010;8.608;2022-10-16T02:43:58;16.70;99.90
23550;DHT22;11953;49.010;8.608;2022-10-16T02:46:44;16.80;99.90
23550;DHT22;11953;49.010;8.608;2022-10-16T02:49:31;16.80;99.90
23550;DHT22;11953;49.010;8.608;2022-10-16T02:52:18;16.80;99.90
23550;DHT22;11953;49.010;8.608;2022-10-16T02:55:05;16.80;99.90
23550;DHT22;11953;49.010;8.608;2022-10-16T02:57:52;16.80;99.90
23550;DHT22;11953;49.010;8.608;2022-10-16T03:00:39;16.80;99.90
23550;DHT22;11953;49.010;8.608;2022-10-16T03:03:25;16.80;99.90
23550;DHT22;11953;49.010;8.608;2022-10-16T03:06:12;16.80;99.90
23550;DHT22;11953;49.010;8.608;2022-10-16T03:09:00;16.90;99.90
23550;DHT22;11953;49.010;8.608;2022-10-16T03:11:46;16.90;99.90
23550;DHT22;11953;49.010;8.608;2022-10-16T03:14:34;16.90;99.90
23550;DHT22;11953;49.010;8.608;2022-10-16T03:17:20;16.80;99.90
23550;DHT22;11953;49.010;8.608;2022-10-16T03:20:07;16.80;99.90
23550;DHT22;11953;49.010;8.608;2022-10-16T03:22:54;16.80;99.90
23550;DHT22;11953;49.010;8.608;2022-10-16T03:25:41;16.80;99.90
23550;DHT22;11953;49.010;8.608;2022-10-16T03:28:28;16.80;99.90
23550;DHT22;11953;49.010;8.608;2022-10-16T03:31:14;16.80;99.90
23550;DHT22;11953;49.010;8.608;2022-10-16T03:34:00;16.80;99.90
23550;DHT22;11953;49.010;8.608;2022-10-16T03:36:47;16.80;99.90
23550;DHT22;11953;49.010;8.608;2022-10-16T03:39:33;16.70;99.90
23550;DHT22;11953;49.010;8.608;2022-10-16T03:42:21;16.70;99.90
23550;DHT22;11953;49.010;8.608;2022-10-16T03:45:08;16.70;99.90
23550;DHT22;11953;49.010;8.608;2022-10-16T03:47:55;16.60;99.90
23550;DHT22;11953;49.010;8.608;2022-10-16T03:50:41;16.60;99.90
23550;DHT22;11953;49.010;8.608;2022-10-16T03:53:27;16.60;99.90
23550;DHT22;11953;49.010;8.608;2022-10-16T03:56:14;16.50;99.90
23550;DHT22;11953;49.010;8.608;2022-10-16T03:59:02;16.50;99.90
23550;DHT22;11953;49.010;8.608;2022-10-16T04:01:48;16.60;99.90
23550;DHT22;11953;49.010;8.608;2022-10-16T04:04:35;16.60;99.90
23550;DHT22;11953;49.010;8.608;2022-10-16T04:07:21;16.50;99.90
23550;DHT22;11953;49.010;8.608;2022-10-16T04:10:08;16.50;99.90
23550;DHT22;11953;49.010;8.608;2022-10-16T04:12:55;16.50;99.90
23550;DHT22;11953;49.010;8.608;2022-10-16T04:15:44;16.50;99.90
23550;DHT22;11953;49.010;8.608;2022-10-16T04:18:31;16.50;99.90
23550;DHT22;11953;49.010;8.608;2022-10-16T04:21:17;16.50;99.90
23550;DHT22;11953;49.010;8.608;2022-10-16T04:24:04;16.40;99.90
23550;DHT22;11953;49.010;8.608;2022-10-16T04:26:50;16.50;99.90
23550;DHT22;11953;49.010;8.608;2022-10-16T04:29:37;16.40;99.90
23550;DHT22;11953;49.010;8.608;2022-10-16T04:32:25;16.40;99.90
23550;DHT22;11953;49.010;8.608;2022-10-16T04:35:12;16.50;99.90
23550;DHT22;11953;49.010;8.608;2022-10-16T04:37:59;16.30;99.90
23550;DHT22;11953;49.010;8.608;2022-10-16T04:40:45;16.30;99.90
23550;DHT22;11953;49.010;8.608;2022-10-16T04:43:31;16.40;99.90
23550;DHT22;11953;49.010;8.608;2022-10-16T04:46:18;16.40;99.90
23550;DHT22;11953;49.010;8.608;2022-10-16T04:49:06;16.30;99.90
23550;DHT22;11953;49.010;8.608;2022-10-16T04:51:52;16.30;99.90
23550;DHT22;11953;49.010;8.608;2022-10-16T04:54:39;16.20;99.90
23550;DHT22;11953;49.010;8.608;2022-10-16T04:57:25;16.00;99.90
23550;DHT22;11953;49.010;8.608;2022-10-16T05:00:13;15.80;99.90
23550;DHT22;11953;49.010;8.608;2022-10-16T05:02:59;15.80;99.90
23550;DHT22;11953;49.010;8.608;2022-10-16T05:05:48;15.70;99.90
23550;DHT22;11953;49.010;8.608;2022-10-16T05:08:35;15.70;99.90
23550;DHT22;11953;49.010;8.608;2022-10-16T05:11:21;15.70;99.90
23550;DHT22;11953;49.010;8.608;2022-10-16T05:14:07;15.80;99.90
23550;DHT22;11953;49.010;8.608;2022-10-16T05:16:55;15.90;99.90
23550;DHT22;11953;49.010;8.608;2022-10-16T05:19:41;16.00;99.90
23550;DHT22;11953;49.010;8.608;2022-10-16T05:22:29;16.00;99.90
23550;DHT22;11953;49.010;8.608;2022-10-16T05:25:16;16.00;99.90
23550;DHT22;11953;49.010;8.608;2022-10-16T05:28:03;16.10;99.90
23550;DHT22;11953;49.010;8.608;2022-10-16T05:30:50;16.10;99.90
23550;DHT22;11953;49.010;8.608;2022-10-16T05:33:37;16.20;99.90
23550;DHT22;11953;49.010;8.608;2022-10-16T05:36:24;16.20;99.90
23550;DHT22;11953;49.010;8.608;2022-10-16T05:39:12;16.20;99.90
23550;DHT22;11953;49.010;8.608;2022-10-16T05:42:00;16.20;99.90
23550;DHT22;11953;49.010;8.608;2022-10-16T05:44:46;16.30;99.90
23550;DHT22;11953;49.010;8.608;2022-10-16T05:47:32;16.20;99.90
23550;DHT22;11953;49.010;8.608;2022-10-16T05:50:19;16.20;99.90
23550;DHT22;11953;49.010;8.608;2022-10-16T05:53:05;16.20;99.90
23550;DHT22;11953;49.010;8.608;2022-10-16T05:55:53;16.10;99.90
23550;DHT22;11953;49.010;8.608;2022-10-16T05:58:40;16.20;99.90
23550;DHT22;11953;49.010;8.608;2022-10-16T06:01:27;16.20;99.90
23550;DHT22;11953;49.010;8.608;2022-10-16T06:04:14;16.20;99.90
23550;DHT22;11953;49.010;8.608;2022-10-16T06:07:00;16.20;99.90
23550;DHT22;11953;49.010;8.608;2022-10-16T06:09:48;16.20;99.90
23550;DHT22;11953;49.010;8.608;2022-10-16T06:12:36;16.20;99.90
23550;DHT22;11953;49.010;8.608;2022-10-16T06:15:22;16.10;99.90
23550;DHT22;11953;49.010;8.608;2022-10-16T06:18:09;15.90;99.90
23550;DHT22;11953;49.010;8.608;2022-10-16T06:20:56;16.00;99.90
23550;DHT22;11953;49.010;8.608;2022-10-16T06:23:43;16.00;99.90
23550;DHT22;11953;49.010;8.608;2022-10-16T06:26:35;16.00;99.90
23550;DHT22;11953;49.010;8.608;2022-10-16T06:29:24;16.10;99.90
23550;DHT22;11953;49.010;8.608;2022-10-16T06:32:10;16.10;99.90
23550;DHT22;11953;49.010;8.608;2022-10-16T06:34:56;16.00;99.90
23550;DHT22;11953;49.010;8.608;2022-10-16T06:37:42;15.90;99.90
23550;DHT22;11953;49.010;8.608;2022-10-16T06:40:29;16.00;99.90
23550;DHT22;11953;49.010;8.608;2022-10-16T06:43:15;16.00;99.90
23550;DHT22;11953;49.010;8.608;2022-10-16T06:46:04;16.10;99.90
23550;DHT22;11953;49.010;8.608;2022-10-16T06:48:53;16.10;99.90
23550;DHT22;11953;49.010;8.608;2022-10-16T06:51:40;16.20;99.90
23550;DHT22;11953;49.010;8.608;2022-10-16T06:54:28;16.20;99.90
23550;DHT22;11953;49.010;8.608;2022-10-16T06:57:14;16.20;99.90
23550;DHT22;11953;49.010;8.608;2022-10-16T07:00:00;16.20;99.90
23550;DHT22;11953;49.010;8.608;2022-10-16T07:02:49;16.20;99.90
23550;DHT22;11953;49.010;8.608;2022-10-16T07:05:37;16.10;99.90
23550;DHT22;11953;49.010;8.608;2022-10-16T07:08:24;16.00;99.90
23550;DHT22;11953;49.010;8.608;2022-10-16T07:11:11;16.00;99.90
23550;DHT22;11953;49.010;8.608;2022-10-16T07:13:58;16.10;99.90
23550;DHT22;11953;49.010;8.608;2022-10-16T07:16:46;16.00;99.90
23550;DHT22;11953;49.010;8.608;2022-10-16T07:19:34;16.10;99.90
23550;DHT22;11953;49.010;8.608;2022-10-16T07:22:21;16.20;99.90
23550;DHT22;11953;49.010;8.608;2022-10-16T07:25:08;16.30;99.90
23550;DHT22;11953;49.010;8.608;2022-10-16T07:27:55;16.30;99.90
23550;DHT22;11953;49.010;8.608;2022-10-16T07:30:41;16.40;99.90
23550;DHT22;11953;49.010;8.608;2022-10-16T07:33:28;16.60;99.90
23550;DHT22;11953;49.010;8.608;2022-10-16T07:36:18;16.80;99.90
23550;DHT22;11953;49.010;8.608;2022-10-16T07:39:04;17.10;99.90
23550;DHT22;11953;49.010;8.608;2022-10-16T07:41:51;17.40;99.90
23550;DHT22;11953;49.010;8.608;2022-10-16T07:44:37;17.60;99.90
23550;DHT22;11953;49.010;8.608;2022-10-16T07:47:25;17.80;99.90
23550;DHT22;11953;49.010;8.608;2022-10-16T07:50:12;17.80;99.90
23550;DHT22;11953;49.010;8.608;2022-10-16T07:53:00;18.00;99.90
23550;DHT22;11953;49.010;8.608;2022-10-16T07:55:46;18.00;99.90
23550;DHT22;11953;49.010;8.608;2022-10-16T07:58:33;18.00;99.90
23550;DHT22;11953;49.010;8.608;2022-10-16T08:01:22;17.90;99.90
23550;DHT22;11953;49.010;8.608;2022-10-16T08:04:10;18.00;99.90
23550;DHT22;11953;49.010;8.608;2022-10-16T08:06:56;18.10;99.90
23550;DHT22;11953;49.010;8.608;2022-10-16T08:09:44;18.00;99.90
23550;DHT22;11953;49.010;8.608;2022-10-16T08:12:34;18.10;99.90
23550;DHT22;11953;49.010;8.608;2022-10-16T08:15:21;18.30;99.90
23550;DHT22;11953;49.010;8.608;2022-10-16T08:18:10;18.40;99.90
23550;DHT22;11953;49.010;8.608;2022-10-16T08:20:58;18.40;99.90
23550;DHT22;11953;49.010;8.608;2022-10-16T08:23:45;18.40;99.90
23550;DHT22;11953;49.010;8.608;2022-10-16T08:26:40;18.70;99.90
23550;DHT22;11953;49.010;8.608;2022-10-16T08:29:27;19.10;99.90
23550;DHT22;11953;49.010;8.608;2022-10-16T08:32:13;19.40;99.90
23550;DHT22;11953;49.010;8.608;2022-10-16T08:35:00;19.40;99.90
23550;DHT22;11953;49.010;8.608;2022-10-16T08:37:46;19.50;99.90
23550;DHT22;11953;49.010;8.608;2022-10-16T08:40:35;19.60;99.90
23550;DHT22;11953;49.010;8.608;2022-10-16T08:43:41;19.50;99.90
23550;DHT22;11953;49.010;8.608;2022-10-16T08:46:41;19.50;99.90
23550;DHT22;11953;49.010;8.608;2022-10-16T08:49:35;19.40;99.90
23550;DHT22;11953;49.010;8.608;2022-10-16T08:52:27;19.40;99.90
23550;DHT22;11953;49.010;8.608;2022-10-16T08:55:30;19.40;99.90
23550;DHT22;11953;49.010;8.608;2022-10-16T08:58:20;19.50;99.90
23550;DHT22;11953;49.010;8.608;2022-10-16T09:01:13;19.60;99.90
23550;DHT22;11953;49.010;8.608;2022-10-16T09:04:14;19.90;99.90
23550;DHT22;11953;49.010;8.608;2022-10-16T09:07:12;20.30;99.90
23550;DHT22;11953;49.010;8.608;2022-10-16T09:10:14;21.00;99.90
23550;DHT22;11953;49.010;8.608;2022-10-16T09:13:15;21.50;99.90
23550;DHT22;11953;49.010;8.608;2022-10-16T09:16:14;22.40;99.90
23550;DHT22;11953;49.010;8.608;2022-10-16T09:19:13;23.30;99.90
23550;DHT22;11953;49.010;8.608;2022-10-16T09:22:07;23.80;99.90
23550;DHT22;11953;49.010;8.608;2022-10-16T09:25:00;24.00;99.90
23550;DHT22;11953;49.010;8.608;2022-10-16T09:27:48;24.00;99.90
23550;DHT22;11953;49.010;8.608;2022-10-16T09:30:38;23.80;99.90
23550;DHT22;11953;49.010;8.608;2022-10-16T09:33:30;23.50;99.90
23550;DHT22;11953;49.010;8.608;2022-10-16T09:36:20;23.20;99.90
23550;DHT22;11953;49.010;8.608;2022-10-16T09:39:08;22.80;99.90
23550;DHT22;11953;49.010;8.608;2022-10-16T09:41:55;22.30;99.90
23550;DHT22;11953;49.010;8.608;2022-10-16T09:44:47;22.00;99.90
23550;DHT22;11953;49.010;8.608;2022-10-16T09:47:44;21.70;99.90
23550;DHT22;11953;49.010;8.608;2022-10-16T09:50:32;21.50;99.90
23550;DHT22;11953;49.010;8.608;2022-10-16T09:53:19;21.30;99.90
23550;DHT22;11953;49.010;8.608;2022-10-16T09:56:10;21.30;99.90
23550;DHT22;11953;49.010;8.608;2022-10-16T09:59:01;21.30;99.90
23550;DHT22;11953;49.010;8.608;2022-10-16T10:01:50;21.60;99.90
23550;DHT22;11953;49.010;8.608;2022-10-16T10:04:39;22.00;99.90
23550;DHT22;11953;49.010;8.608;2022-10-16T10:07:31;22.20;99.90
23550;DHT22;11953;49.010;8.608;2022-10-16T10:10:21;22.30;99.90
23550;DHT22;11953;49.010;8.608;2022-10-16T10:13:17;22.30;99.90
23550;DHT22;11953;49.010;8.608;2022-10-16T10:16:04;22.00;99.90
23550;DHT22;11953;49.010;8.608;2022-10-16T10:18:58;22.00;99.90
23550;DHT22;11953;49.010;8.608;2022-10-16T10:21:45;21.90;99.90
23550;DHT22;11953;49.010;8.608;2022-10-16T10:24:32;21.70;99.90
23550;DHT22;11953;49.010;8.608;2022-10-16T10:27:19;21.70;99.90
23550;DHT22;11953;49.010;8.608;2022-10-16T10:30:13;21.90;99.90
23550;DHT22;11953;49.010;8.608;2022-10-16T10:33:19;21.80;99.90
23550;DHT22;11953;49.010;8.608;2022-10-16T10:36:16;21.90;99.90
23550;DHT22;11953;49.010;8.608;2022-10-16T10:39:11;22.10;99.90
23550;DHT22;11953;49.010;8.608;2022-10-16T10:42:12;22.50;99.90
23550;DHT22;11953;49.010;8.608;2022-10-16T10:45:17;22.90;99.90
23550;DHT22;11953;49.010;8.608;2022-10-16T10:48:18;23.20;99.90
23550;DHT22;11953;49.010;8.608;2022-10-16T10:51:10;23.30;99.90
23550;DHT22;11953;49.010;8.608;2022-10-16T10:54:05;23.60;99.90
23550;DHT22;11953;49.010;8.608;2022-10-16T10:56:59;23.00;99.90
23550;DHT22;11953;49.010;8.608;2022-10-16T11:00:02;22.90;99.90
23550;DHT22;11953;49.010;8.608;2022-10-16T11:02:55;23.20;99.90
23550;DHT22;11953;49.010;8.608;2022-10-16T11:05:47;23.50;99.90
23550;DHT22;11953;49.010;8.608;2022-10-16T11:08:39;23.30;99.90
23550;DHT22;11953;49.010;8.608;2022-10-16T11:11:30;23.20;99.90
23550;DHT22;11953;49.010;8.608;2022-10-16T11:14:20;22.70;99.90
23550;DHT22;11953;49.010;8.608;2022-10-16T11:17:12;22.50;99.90
23550;DHT22;11953;49.010;8.608;2022-10-16T11:20:03;22.40;99.90
23550;DHT22;11953;49.010;8.608;2022-10-16T11:22:54;22.40;99.90
23550;DHT22;11953;49.010;8.608;2022-10-16T11:25:43;22.40;99.90
23550;DHT22;11953;49.010;8.608;2022-10-16T11:28:34;22.30;99.90
23550;DHT22;11953;49.010;8.608;2022-10-16T11:31:28;22.40;99.90
23550;DHT22;11953;49.010;8.608;2022-10-16T11:34:24;22.40;99.90
23550;DHT22;11953;49.010;8.608;2022-10-16T11:37:14;22.50;99.90
23550;DHT22;11953;49.010;8.608;2022-10-16T11:40:11;22.70;99.90
23550;DHT22;11953;49.010;8.608;2022-10-16T11:43:06;22.70;99.90
23550;DHT22;11953;49.010;8.608;2022-10-16T11:46:00;22.80;99.90
23550;DHT22;11953;49.010;8.608;2022-10-16T11:48:57;22.90;99.90
23550;DHT22;11953;49.010;8.608;2022-10-16T11:51:54;22.80;99.90
23550;DHT22;11953;49.010;8.608;2022-10-16T11:54:47;23.10;99.90
23550;DHT22;11953;49.010;8.608;2022-10-16T11:57:39;23.20;99.90
23550;DHT22;11953;49.010;8.608;2022-10-16T12:00:29;23.10;99.90
23550;DHT22;11953;49.010;8.608;2022-10-16T12:03:21;23.00;99.90
23550;DHT22;11953;49.010;8.608;2022-10-16T12:06:23;22.70;99.90
23550;DHT22;11953;49.010;8.608;2022-10-16T12:09:20;22.70;99.90
23550;DHT22;11953;49.010;8.608;2022-10-16T12:12:24;22.70;99.90
23550;DHT22;11953;49.010;8.608;2022-10-16T12:15:23;22.70;99.90
23550;DHT22;11953;49.010;8.608;2022-10-16T12:18:30;22.80;99.90
23550;DHT22;11953;49.010;8.608;2022-10-16T12:21:17;22.80;99.90
23550;DHT22;11953;49.010;8.608;2022-10-16T12:24:05;22.70;99.90
23550;DHT22;11953;49.010;8.608;2022-10-16T12:26:53;22.70;99.90
23550;DHT22;11953;49.010;8.608;2022-10-16T12:29:41;22.80;99.90
23550;DHT22;11953;49.010;8.608;2022-10-16T12:32:31;22.70;99.90
23550;DHT22;11953;49.010;8.608;2022-10-16T12:35:33;22.70;99.90
23550;DHT22;11953;49.010;8.608;2022-10-16T12:38:24;22.60;99.90
23550;DHT22;11953;49.010;8.608;2022-10-16T12:41:11;22.50;99.90
23550;DHT22;11953;49.010;8.608;2022-10-16T12:44:01;22.40;99.90
23550;DHT22;11953;49.010;8.608;2022-10-16T12:46:48;22.20;99.90
23550;DHT22;11953;49.010;8.608;2022-10-16T12:49:38;22.10;99.90
23550;DHT22;11953;49.010;8.608;2022-10-16T12:52:27;22.10;99.90
23550;DHT22;11953;49.010;8.608;2022-10-16T12:55:16;22.20;99.90
23550;DHT22;11953;49.010;8.608;2022-10-16T12:58:15;22.30;99.90
23550;DHT22;11953;49.010;8.608;2022-10-16T13:01:13;22.30;99.90
23550;DHT22;11953;49.010;8.608;2022-10-16T13:04:27;22.30;99.90
23550;DHT22;11953;49.010;8.608;2022-10-16T13:07:39;22.10;99.90
23550;DHT22;11953;49.010;8.608;2022-10-16T13:10:35;22.00;99.90
23550;DHT22;11953;49.010;8.608;2022-10-16T13:13:45;22.00;99.90
23550;DHT22;11953;49.010;8.608;2022-10-16T13:16:48;22.00;99.90
23550;DHT22;11953;49.010;8.608;2022-10-16T13:19:41;22.10;99.90
23550;DHT22;11953;49.010;8.608;2022-10-16T13:22:33;22.00;99.90
23550;DHT22;11953;49.010;8.608;2022-10-16T13:25:27;22.00;99.90
23550;DHT22;11953;49.010;8.608;2022-10-16T13:28:18;22.00;99.90
23550;DHT22;11953;49.010;8.608;2022-10-16T13:31:15;21.90;99.90
23550;DHT22;11953;49.010;8.608;2022-10-16T13:34:05;21.80;99.90
23550;DHT22;11953;49.010;8.608;2022-10-16T13:36:53;21.80;99.90
23550;DHT22;11953;49.010;8.608;2022-10-16T13:39:39;21.90;99.90
23550;DHT22;11953;49.010;8.608;2022-10-16T13:42:27;21.80;99.90
23550;DHT22;11953;49.010;8.608;2022-10-16T13:45:18;21.80;99.90
23550;DHT22;11953;49.010;8.608;2022-10-16T13:48:09;21.80;99.90
23550;DHT22;11953;49.010;8.608;2022-10-16T13:51:06;21.80;99.90
23550;DHT22;11953;49.010;8.608;2022-10-16T13:53:58;21.80;99.90
23550;DHT22;11953;49.010;8.608;2022-10-16T13:56:45;21.90;99.90
23550;DHT22;11953;49.010;8.608;2022-10-16T13:59:36;21.80;99.90
23550;DHT22;11953;49.010;8.608;2022-10-16T14:02:27;21.70;99.90
23550;DHT22;11953;49.010;8.608;2022-10-16T14:05:15;21.60;99.90
23550;DHT22;11953;49.010;8.608;2022-10-16T14:08:03;21.60;99.90
23550;DHT22;11953;49.010;8.608;2022-10-16T14:10:52;21.50;99.90
23550;DHT22;11953;49.010;8.608;2022-10-16T14:13:43;21.40;99.90
23550;DHT22;11953;49.010;8.608;2022-10-16T14:16:32;21.40;99.90
23550;DHT22;11953;49.010;8.608;2022-10-16T14:19:21;21.30;99.90
23550;DHT22;11953;49.010;8.608;2022-10-16T14:22:22;21.30;99.90
23550;DHT22;11953;49.010;8.608;2022-10-16T14:25:23;21.20;99.90
23550;DHT22;11953;49.010;8.608;2022-10-16T14:28:17;21.30;99.90
23550;DHT22;11953;49.010;8.608;2022-10-16T14:31:27;21.30;99.90
23550;DHT22;11953;49.010;8.608;2022-10-16T14:34:29;21.20;99.90
23550;DHT22;11953;49.010;8.608;2022-10-16T14:37:23;21.20;99.90
23550;DHT22;11953;49.010;8.608;2022-10-16T14:40:14;21.30;99.90
23550;DHT22;11953;49.010;8.608;2022-10-16T14:43:03;21.40;99.90
23550;DHT22;11953;49.010;8.608;2022-10-16T14:45:52;21.30;99.90
23550;DHT22;11953;49.010;8.608;2022-10-16T14:48:41;21.30;99.90
23550;DHT22;11953;49.010;8.608;2022-10-16T14:51:29;21.20;99.90
23550;DHT22;11953;49.010;8.608;2022-10-16T14:54:17;21.10;99.90
23550;DHT22;11953;49.010;8.608;2022-10-16T14:57:04;21.00;99.90
23550;DHT22;11953;49.010;8.608;2022-10-16T14:59:53;21.00;99.90
23550;DHT22;11953;49.010;8.608;2022-10-16T15:02:39;21.10;99.90
23550;DHT22;11953;49.010;8.608;2022-10-16T15:05:27;21.10;99.90
23550;DHT22;11953;49.010;8.608;2022-10-16T15:08:13;21.10;99.90
23550;DHT22;11953;49.010;8.608;2022-10-16T15:11:01;21.10;99.90
23550;DHT22;11953;49.010;8.608;2022-10-16T15:13:47;21.10;99.90
23550;DHT22;11953;49.010;8.608;2022-10-16T15:16:36;21.20;99.90
23550;DHT22;11953;49.010;8.608;2022-10-16T15:19:22;21.30;99.90
23550;DHT22;11953;49.010;8.608;2022-10-16T15:22:09;21.30;99.90
23550;DHT22;11953;49.010;8.608;2022-10-16T15:24:56;21.30;99.90
23550;DHT22;11953;49.010;8.608;2022-10-16T15:27:43;21.30;99.90
23550;DHT22;11953;49.010;8.608;2022-10-16T15:30:29;21.10;99.90
23550;DHT22;11953;49.010;8.608;2022-10-16T15:33:20;21.10;99.90
23550;DHT22;11953;49.010;8.608;2022-10-16T15:36:07;21.10;99.90
23550;DHT22;11953;49.010;8.608;2022-10-16T15:38:54;21.00;99.90
23550;DHT22;11953;49.010;8.608;2022-10-16T15:41:41;21.10;99.90
23550;DHT22;11953;49.010;8.608;2022-10-16T15:44:27;21.10;99.90
23550;DHT22;11953;49.010;8.608;2022-10-16T15:47:15;21.00;99.90
23550;DHT22;11953;49.010;8.608;2022-10-16T15:50:03;21.00;99.90
23550;DHT22;11953;49.010;8.608;2022-10-16T15:52:51;21.00;99.90
23550;DHT22;11953;49.010;8.608;2022-10-16T15:55:37;20.90;99.90
23550;DHT22;11953;49.010;8.608;2022-10-16T15:58:25;20.80;99.90
23550;DHT22;11953;49.010;8.608;2022-10-16T16:01:11;20.80;99.90
23550;DHT22;11953;49.010;8.608;2022-10-16T16:03:58;20.80;99.90
23550;DHT22;11953;49.010;8.608;2022-10-16T16:06:46;20.70;99.90
23550;DHT22;11953;49.010;8.608;2022-10-16T16:09:33;20.60;99.90
23550;DHT22;11953;49.010;8.608;2022-10-16T16:12:19;20.50;99.90
23550;DHT22;11953;49.010;8.608;2022-10-16T16:15:08;20.40;99.90
23550;DHT22;11953;49.010;8.608;2022-10-16T16:17:55;20.30;99.90
23550;DHT22;11953;49.010;8.608;2022-10-16T16:20:41;20.30;99.90
23550;DHT22;11953;49.010;8.608;2022-10-16T16:23:29;20.30;99.90
23550;DHT22;11953;49.010;8.608;2022-10-16T16:26:22;20.20;99.90
23550;DHT22;11953;49.010;8.608;2022-10-16T16:29:12;20.10;99.90
23550;DHT22;11953;49.010;8.608;2022-10-16T16:31:59;20.00;99.90
23550;DHT22;11953;49.010;8.608;2022-10-16T16:34:46;20.00;99.90
23550;DHT22;11953;49.010;8.608;2022-10-16T16:37:32;20.00;99.90
23550;DHT22;11953;49.010;8.608;2022-10-16T16:40:20;19.90;99.90
23550;DHT22;11953;49.010;8.608;2022-10-16T16:43:07;19.90;99.90
23550;DHT22;11953;49.010;8.608;2022-10-16T16:45:54;19.80;99.90
23550;DHT22;11953;49.010;8.608;2022-10-16T16:48:41;19.70;99.90
23550;DHT22;11953;49.010;8.608;2022-10-16T16:51:28;19.50;99.90
23550;DHT22;11953;49.010;8.608;2022-10-16T16:54:15;19.40;99.90
23550;DHT22;11953;49.010;8.608;2022-10-16T16:57:02;19.30;99.90
23550;DHT22;11953;49.010;8.608;2022-10-16T16:59:52;19.10;99.90
23550;DHT22;11953;49.010;8.608;2022-10-16T17:02:39;19.00;99.90
23550;DHT22;11953;49.010;8.608;2022-10-16T17:05:28;19.00;99.90
23550;DHT22;11953;49.010;8.608;2022-10-16T17:08:14;18.90;99.90
23550;DHT22;11953;49.010;8.608;2022-10-16T17:11:01;18.90;99.90
23550;DHT22;11953;49.010;8.608;2022-10-16T17:13:50;18.90;99.90
23550;DHT22;11953;49.010;8.608;2022-10-16T17:16:41;18.80;99.90
23550;DHT22;11953;49.010;8.608;2022-10-16T17:19:29;18.70;99.90
23550;DHT22;11953;49.010;8.608;2022-10-16T17:22:16;18.60;99.90
23550;DHT22;11953;49.010;8.608;2022-10-16T17:25:03;18.70;99.90
23550;DHT22;11953;49.010;8.608;2022-10-16T17:27:51;18.60;99.90
23550;DHT22;11953;49.010;8.608;2022-10-16T17:30:39;18.50;99.90
23550;DHT22;11953;49.010;8.608;2022-10-16T17:33:26;18.60;99.90
23550;DHT22;11953;49.010;8.608;2022-10-16T17:36:13;18.60;99.90
23550;DHT22;11953;49.010;8.608;2022-10-16T17:39:04;18.60;99.90
23550;DHT22;11953;49.010;8.608;2022-10-16T17:41:51;18.50;99.90
23550;DHT22;11953;49.010;8.608;2022-10-16T17:44:37;18.30;99.90
23550;DHT22;11953;49.010;8.608;2022-10-16T17:47:26;18.30;99.90
23550;DHT22;11953;49.010;8.608;2022-10-16T17:50:12;18.40;99.90
23550;DHT22;11953;49.010;8.608;2022-10-16T17:53:00;18.20;99.90